Home > Products > Valid Products > MTR

000
SAUS45 KREV 301657
MTRDRA
METAR KDRA 301652Z AUTO VRB03KT 10SM CLR 21/M09 A3013 RMK AO2 SLP168
T02111094





000
SAUS45 KREV 301557
MTRDRA
METAR KDRA 301552Z AUTO 00000KT 10SM CLR 17/M09 A3014 RMK AO2 SLP177
T01721094





000
SAUS45 KREV 301457
MTRDRA
METAR KDRA 301452Z AUTO 01005KT 10SM CLR 12/M09 A3013 RMK AO2 SLP176
T01171094 53005





000
SAUS45 KREV 301356
MTRDRA
METAR KDRA 301352Z AUTO 00000KT 10SM CLR 12/M09 A3011 RMK AO2 SLP169
T01171094





000
SAUS45 KREV 301257
MTRDRA
METAR KDRA 301252Z AUTO 08003KT 10SM CLR 10/M09 A3011 RMK AO2 SLP166
T01001094





000
SAUS45 KREV 301157
MTRDRA
METAR KDRA 301152Z AUTO 02003KT 10SM CLR 09/M10 A3011 RMK AO2 SLP163
T00941100 10144 20083 57006





000
SAUS45 KREV 301057
MTRDRA
METAR KDRA 301052Z AUTO 31003KT 10SM CLR 10/M10 A3011 RMK AO2 SLP164
T01001100





000
SAUS45 KREV 301057
MTRDRA
METAR KDRA 301052Z AUTO 31003KT 10SM CLR 10/M10 A3011 RMK AO2 SLP164
T01001100





000
SAUS45 KREV 300957
MTRDRA
METAR KDRA 300952Z AUTO 00000KT 10SM CLR 09/M11 A3012 RMK AO2 SLP167
T00941106





000
SAUS45 KREV 300857
MTRDRA
METAR KDRA 300852Z AUTO 00000KT 10SM CLR 10/M11 A3013 RMK AO2 SLP168
T01001106 58003





000
SAUS45 KREV 300756
MTRDRA
METAR KDRA 300752Z AUTO 00000KT 10SM CLR 11/M11 A3013 RMK AO2 SLP172
T01111106 402780072





000
SAUS45 KREV 300657
MTRDRA
METAR KDRA 300652Z AUTO 00000KT 10SM CLR 13/M10 A3014 RMK AO2 SLP172
T01331100





000
SAUS45 KREV 300557
MTRDRA
METAR KDRA 300552Z AUTO 04004KT 10SM CLR 12/M11 A3014 RMK AO2 SLP173
T01221106 10267 20122 53005





000
SAUS45 KREV 300457
MTRDRA
METAR KDRA 300452Z AUTO 08010KT 10SM CLR 16/M11 A3013 RMK AO2 SLP170
T01611106





000
SAUS45 KREV 300457
MTRDRA
METAR KDRA 300452Z AUTO 08010KT 10SM CLR 16/M11 A3013 RMK AO2 SLP170
T01611106





000
SAUS45 KREV 300357
MTRDRA
METAR KDRA 300352Z AUTO 11005KT 10SM CLR 15/M11 A3012 RMK AO2 SLP175
T01501111





000
SAUS45 KREV 300257
MTRDRA
METAR KDRA 300252Z AUTO 08006KT 10SM CLR 17/M11 A3012 RMK AO2 SLP175
T01721111 53006





000
SAUS45 KREV 300157
MTRDRA
METAR KDRA 300152Z AUTO 09008KT 10SM CLR 19/M12 A3011 RMK AO2 SLP170
T01891117





000
SAUS45 KREV 300057
MTRDRA
METAR KDRA 300052Z AUTO 16006KT 10SM CLR 23/M12 A3010 RMK AO2 SLP163
T02331117





000
SAUS45 KREV 292357
MTRDRA
METAR KDRA 292352Z AUTO 14006KT 10SM CLR 27/M12 A3010 RMK AO2 SLP161
T02671117 10278 20228 56010





000
SAUS45 KREV 292257
MTRDRA
METAR KDRA 292252Z AUTO 14007KT 10SM CLR 28/M12 A3010 RMK AO2 SLP162
T02781122





000
SAUS45 KREV 292157
MTRDRA
METAR KDRA 292152Z AUTO 14005KT 10SM CLR 28/M13 A3011 RMK AO2 SLP163
T02781128





000
SAUS45 KREV 292057
MTRDRA
METAR KDRA 292052Z AUTO VRB05KT 10SM CLR 27/M13 A3013 RMK AO2 SLP171
T02721128 58021





000
SAUS45 KREV 291957
MTRDRA
METAR KDRA 291952Z AUTO 14006KT 10SM CLR 26/M13 A3016 RMK AO2 SLP179
T02561128





000
SAUS45 KREV 291857
MTRDRA
METAR KDRA 291852Z AUTO 03004KT 10SM CLR 25/M11 A3018 RMK AO2 SLP189
T02501111





000
SAUS45 KREV 291757
MTRDRA
METAR KDRA 291752Z AUTO 36004KT 10SM CLR 23/M11 A3020 RMK AO2 SLP196
T02281111 10228 20072 50005





000
SAUS45 KREV 291657
MTRDRA
METAR KDRA 291652Z AUTO 02004KT 10SM CLR 20/M11 A3021 RMK AO2 SLP201
T02001111





000
SAUS45 KREV 291557
MTRDRA
METAR KDRA 291552Z AUTO 10003KT 10SM CLR 15/M11 A3020 RMK AO2 SLP202
T01501111





000
SAUS45 KREV 291457
MTRDRA
METAR KDRA 291452Z AUTO 24004KT 10SM CLR 11/M11 A3018 RMK AO2 SLP199
T01061106 53008





000
SAUS45 KREV 291257
MTRDRA
METAR KDRA 291252Z AUTO 11005KT 10SM CLR 08/M11 A3016 RMK AO2 SLP189
T00831111





000
SAUS45 KREV 291157
MTRDRA
METAR KDRA 291152Z AUTO 33005KT 10SM CLR 08/M11 A3016 RMK AO2 SLP183
T00831111 10122 20072 58001





000
SAUS45 KREV 291057
MTRDRA
METAR KDRA 291052Z AUTO 11006KT 10SM CLR 08/M11 A3016 RMK AO2 SLP186
T00781111





000
SAUS45 KREV 290957
MTRDRA
METAR KDRA 290952Z AUTO 07006KT 10SM CLR 10/M11 A3016 RMK AO2 SLP182
T01001106





000
SAUS45 KREV 290857
MTRDRA
METAR KDRA 290852Z AUTO 15005KT 10SM CLR 09/M11 A3016 RMK AO2 SLP184
T00941111 51003





000
SAUS45 KREV 290757
MTRDRA
METAR KDRA 290752Z AUTO 01004KT 10SM CLR 12/M10 A3016 RMK AO2 SLP181
T01171100 402560072





000
SAUS45 KREV 290657
MTRDRA
METAR KDRA 290652Z AUTO 12004KT 10SM CLR 11/M11 A3016 RMK AO2 SLP181
T01111106





000
SAUS45 KREV 290557
MTRDRA
METAR KDRA 290552Z AUTO 09004KT 10SM CLR 11/M11 A3015 RMK AO2 SLP181
T01111111 10244 20106 50009





000
SAUS45 KREV 290457
MTRDRA
METAR KDRA 290452Z AUTO 00000KT 10SM CLR 13/M11 A3015 RMK AO2 SLP182
T01281111





000
SAUS45 KREV 290357
MTRDRA
METAR KDRA 290352Z AUTO 10007KT 10SM CLR 14/M11 A3013 RMK AO2 SLP176
T01441106





000
SAUS45 KREV 290257
MTRDRA
METAR KDRA 290252Z AUTO 06004KT 10SM CLR 16/M11 A3012 RMK AO2 SLP178
T01611111 53012





000
SAUS45 KREV 290157
MTRDRA
METAR KDRA 290152Z AUTO 08004KT 10SM CLR 18/M11 A3011 RMK AO2 SLP172
T01781106





000
SAUS45 KREV 290057
MTRDRA
METAR KDRA 290052Z AUTO 12005KT 10SM CLR 22/M11 A3009 RMK AO2 SLP160
T02171111





000
SAUS45 KREV 282357
MTRDRA
METAR KDRA 282352Z AUTO 11005KT 10SM CLR 24/M11 A3008 RMK AO2 SLP155
T02441111 10256 20206 56004





000
SAUS45 KREV 282257
MTRDRA
METAR KDRA 282252Z AUTO 00000KT 10SM CLR 24/M11 A3009 RMK AO2 SLP156
T02441111





000
SAUS45 KREV 282157
MTRDRA
METAR KDRA 282152Z AUTO 23004KT 10SM CLR 24/M11 A3008 RMK AO2 SLP158
T02391111





000
SAUS45 KREV 282057
MTRDRA
METAR KDRA 282052Z AUTO 29005KT 10SM CLR 24/M11 A3010 RMK AO2 SLP159
T02391111 58013





000
SAUS45 KREV 281957
MTRDRA
METAR KDRA 281952Z AUTO 24003KT 10SM CLR 23/M11 A3011 RMK AO2 SLP165
T02281111





000
SAUS45 KREV 281857
MTRDRA
METAR KDRA 281852Z AUTO 34004KT 10SM CLR 23/M11 A3013 RMK AO2 SLP172
T02281111





000
SAUS45 KREV 281757
MTRDRA
METAR KDRA 281752Z AUTO 35005KT 10SM CLR 21/M11 A3014 RMK AO2 SLP175
T02111111 10211 20072 51004





000
SAUS45 KREV 281657
MTRDRA
METAR KDRA 281652Z AUTO 04009KT 10SM CLR 19/M12 A3014 RMK AO2 SLP177
T01891117





000
SAUS45 KREV 281657
MTRDRA
METAR KDRA 281652Z AUTO 04009KT 10SM CLR 19/M12 A3014 RMK AO2 SLP177
T01891117





000
SAUS45 KREV 281557
MTRDRA
METAR KDRA 281552Z VRB03KT 10SM CLR 14/M12 A3014 RMK AO2 SLP182
T01441117





000
SAUS45 KREV 281557
MTRDRA
METAR KDRA 281552Z VRB03KT 10SM CLR 14/M12 A3014 RMK AO2 SLP182
T01441117





000
SAUS45 KREV 281457
MTRDRA
METAR KDRA 281452Z AUTO 00000KT 10SM CLR 09/M09 A3013 RMK AO2 SLP180
T00941094 53017





000
SAUS45 KREV 281357
MTRDRA
METAR KDRA 281352Z AUTO 36003KT 10SM CLR 09/M11 A3011 RMK AO2 SLP173
T00891111





000
SAUS45 KREV 281257
MTRDRA
METAR KDRA 281252Z AUTO VRB04KT 10SM CLR 09/M10 A3009 RMK AO2 SLP163
T00891100





000
SAUS45 KREV 281157
MTRDRA
METAR KDRA 281152Z AUTO 01003KT 10SM CLR 10/M11 A3007 RMK AO2 SLP155
T01001111 10133 20083 53002





000
SAUS45 KREV 281057
MTRDRA
METAR KDRA 281052Z AUTO 08003KT 10SM CLR 11/M09 A3006 RMK AO2 SLP151
T01111094





000
SAUS45 KREV 280957
MTRDRA
METAR KDRA 280952Z AUTO 08005KT 10SM CLR 09/M11 A3007 RMK AO2 SLP154
T00891106





000
SAUS45 KREV 280957
MTRDRA
METAR KDRA 280952Z AUTO 08005KT 10SM CLR 09/M11 A3007 RMK AO2 SLP154
T00891106





000
SAUS45 KREV 280857
MTRDRA
METAR KDRA 280852Z AUTO 01005KT 10SM CLR 11/M11 A3006 RMK AO2 SLP151
T01111106 53005





000
SAUS45 KREV 280757
MTRDRA
METAR KDRA 280752Z AUTO 06005KT 10SM CLR 12/M10 A3006 RMK AO2 SLP148
T01221100 402330106





000
SAUS45 KREV 280657
MTRDRA
METAR KDRA 280652Z AUTO 07003KT 10SM CLR 12/M10 A3005 RMK AO2 SLP147
T01221100





000
SAUS45 KREV 280557
MTRDRA
METAR KDRA 280552Z AUTO 11006KT 10SM CLR 13/M09 A3005 RMK AO2 SLP146
T01331089 10222 20122 53013





000
SAUS45 KREV 280457
MTRDRA
METAR KDRA 280452Z AUTO 00000KT 10SM CLR 14/M09 A3003 RMK AO2 SLP142
T01391094





000
SAUS45 KREV 280457
MTRDRA
METAR KDRA 280452Z AUTO 00000KT 10SM CLR 14/M09 A3003 RMK AO2 SLP142
T01391094





000
SAUS45 KREV 280357
MTRDRA
METAR KDRA 280352Z AUTO 00000KT 10SM CLR 14/M09 A3002 RMK AO2 SLP139
T01391094





000
SAUS45 KREV 280357
MTRDRA
METAR KDRA 280352Z AUTO 00000KT 10SM CLR 14/M09 A3002 RMK AO2 SLP139
T01391094





000
SAUS45 KREV 280257
MTRDRA
METAR KDRA 280252Z AUTO 10005KT 10SM CLR 15/M09 A3000 RMK AO2 SLP134
T01501094 53008





000
SAUS45 KREV 280157
MTRDRA
METAR KDRA 280152Z AUTO 11006KT 10SM CLR 17/M09 A2999 RMK AO2 SLP130
T01671094





000
SAUS45 KREV 280157
MTRDRA
METAR KDRA 280152Z AUTO 11006KT 10SM CLR 17/M09 A2999 RMK AO2 SLP130
T01671094





000
SAUS45 KREV 280057
MTRDRA
METAR KDRA 280052Z AUTO 12005KT 10SM CLR 20/M09 A2998 RMK AO2 SLP123
T02001094





000
SAUS45 KREV 272357
MTRDRA
METAR KDRA 272352Z AUTO 15005KT 10SM CLR 22/M09 A2998 RMK AO2 SLP118
T02221094 10233 20178 55004





000
SAUS45 KREV 272257
MTRDRA
METAR KDRA 272252Z AUTO 10004KT 10SM CLR 22/M09 A2997 RMK AO2 SLP116
T02221094





000
SAUS45 KREV 272157
MTRDRA
METAR KDRA 272152Z AUTO VRB04KT 10SM CLR 22/M09 A2997 RMK AO2 SLP117
T02221094





000
SAUS45 KREV 272056
MTRDRA
METAR KDRA 272052Z AUTO VRB04KT 10SM CLR 22/M09 A2999 RMK AO2 SLP121
T02171094 56019





000
SAUS45 KREV 271957
MTRDRA
METAR KDRA 271952Z AUTO 02005KT 10SM CLR 21/M09 A3001 RMK AO2 SLP129
T02061094





000
SAUS45 KREV 271857
MTRDRA
METAR KDRA 271852Z AUTO 02010KT 10SM CLR 20/M09 A3003 RMK AO2 SLP140
T02001089





000
SAUS45 KREV 271757
MTRDRA
METAR KDRA 271752Z AUTO 02014KT 10SM CLR 18/M08 A3005 RMK AO2 SLP148
T01781083 10178 20122 51007





    US Dept of Commerce
    National Oceanic and Atmospheric Administration
    National Weather Service
    1325 East West Highway
    Silver Spring, MD 20910
    Page Author: NWS Internet Services Team
Disclaimer
Information Quality
Credits
Glossary
Privacy Policy
Freedom of Information Act (FOIA)
About Us
Career Opportunities